Time;durP1;ratioP1;P1;durP2;ratioP2;P2;SDS_P1;SDS_P2;PMS_P1;PMS_P2;Temp;Humidity;BMP_temperature;BMP_pressure;BME280_temperature;BME280_humidity;BME280_pressure;Samples;Min_cycle;Max_cycle;Signal;HPM_P1;HPM_P2
2022/06/25 00:01:58;;;;;;;12.82;2.20;;;15.20;99.90;;;;;;5006711;28;20088;-62
2022/06/25 00:07:08;;;;;;;14.07;2.65;;;15.10;99.90;;;;;;5002953;28;20092;-62
2022/06/25 00:09:34;;;;;;;13.93;2.50;;;15.20;99.90;;;;;;5008705;28;20474;-62
2022/06/25 00:14:44;;;;;;;16.23;2.22;;;15.20;99.90;;;;;;5006977;28;20025;-62
2022/06/25 00:17:10;;;;;;;17.15;2.40;;;15.10;99.90;;;;;;5010360;28;20029;-62
2022/06/25 00:19:35;;;;;;;14.25;1.70;;;15.10;99.90;;;;;;5009214;28;20026;-61
2022/06/25 00:22:02;;;;;;;13.07;1.60;;;15.10;99.90;;;;;;5008310;28;20120;-61
2022/06/25 00:24:27;;;;;;;14.32;2.47;;;14.90;99.90;;;;;;5004507;28;20032;-61
2022/06/25 00:26:53;;;;;;;17.13;1.63;;;14.90;99.90;;;;;;5006700;28;20026;-62
2022/06/25 00:29:19;;;;;;;10.88;2.40;;;14.80;99.90;;;;;;5009362;28;20438;-62
2022/06/25 00:31:45;;;;;;;11.82;1.70;;;14.70;99.90;;;;;;5006343;28;20497;-62
2022/06/25 00:34:10;;;;;;;9.52;1.77;;;14.80;99.90;;;;;;4999304;28;20062;-62
2022/06/25 00:36:36;;;;;;;9.90;1.10;;;14.90;99.90;;;;;;5008733;28;20074;-64
2022/06/25 00:39:03;;;;;;;9.75;1.27;;;15.00;99.90;;;;;;5008019;28;20034;-62
2022/06/25 00:41:30;;;;;;;7.90;1.25;;;15.00;99.90;;;;;;5007573;28;20031;-62
2022/06/25 00:43:56;;;;;;;10.15;1.30;;;14.90;99.90;;;;;;5006215;28;20075;-62
2022/06/25 00:46:22;;;;;;;12.48;2.13;;;14.90;99.90;;;;;;5005825;28;20030;-62
2022/06/25 00:48:47;;;;;;;11.38;2.63;;;14.80;99.90;;;;;;5006372;28;20056;-62
2022/06/25 00:51:15;;;;;;;16.75;1.67;;;14.80;99.90;;;;;;5007860;28;20085;-61
2022/06/25 00:53:44;;;;;;;15.90;2.60;;;14.90;99.90;;;;;;5001817;28;20026;-62
2022/06/25 00:56:11;;;;;;;9.07;2.40;;;14.80;99.90;;;;;;5006885;28;20482;-61
2022/06/25 00:58:43;;;;;;;15.07;2.05;;;14.80;99.90;;;;;;5005850;28;20040;-62
2022/06/25 01:01:09;;;;;;;16.63;2.15;;;14.80;99.90;;;;;;5009147;28;20116;-62
2022/06/25 01:03:36;;;;;;;10.65;1.48;;;14.80;99.90;;;;;;5008940;28;20041;-62
2022/06/25 01:06:03;;;;;;;12.27;1.88;;;14.80;99.90;;;;;;5007499;28;20042;-61
2022/06/25 01:08:30;;;;;;;9.35;2.42;;;14.80;99.90;;;;;;5007600;28;20026;-61
2022/06/25 01:10:56;;;;;;;14.52;2.20;;;14.80;99.90;;;;;;5006899;28;20037;-60
2022/06/25 01:13:23;;;;;;;15.38;2.58;;;14.80;99.90;;;;;;5008824;28;20037;-61
2022/06/25 01:15:49;;;;;;;12.35;1.60;;;14.70;99.90;;;;;;5006245;28;20474;-62
2022/06/25 01:18:16;;;;;;;9.77;1.55;;;14.70;99.90;;;;;;5008132;28;20033;-62
2022/06/25 01:20:45;;;;;;;16.15;1.70;;;14.70;99.90;;;;;;5006223;28;20066;-62
2022/06/25 01:23:12;;;;;;;15.88;2.47;;;14.70;99.90;;;;;;5007493;28;20026;-62
2022/06/25 01:25:39;;;;;;;11.27;1.55;;;14.70;99.90;;;;;;5006203;28;20045;-62
2022/06/25 01:28:05;;;;;;;14.38;2.10;;;14.60;99.90;;;;;;5006931;28;20033;-62
2022/06/25 01:30:32;;;;;;;12.65;1.90;;;14.60;99.90;;;;;;5007602;28;20057;-61
2022/06/25 01:32:58;;;;;;;11.32;1.95;;;14.60;99.90;;;;;;5005196;28;20022;-61
2022/06/25 01:35:23;;;;;;;11.10;2.10;;;14.50;99.90;;;;;;5001322;28;20064;-61
2022/06/25 01:37:49;;;;;;;12.30;1.48;;;14.60;99.90;;;;;;5005748;28;20072;-61
2022/06/25 01:40:15;;;;;;;13.13;1.60;;;14.50;99.90;;;;;;5008449;28;20034;-62
2022/06/25 01:43:00;;;;;;;15.45;2.55;;;14.50;99.90;;;;;;5002907;28;20026;-62
2022/06/25 01:45:34;;;;;;;13.55;2.00;;;14.50;99.90;;;;;;5009830;28;20050;-61
2022/06/25 01:48:02;;;;;;;12.15;2.10;;;14.40;99.90;;;;;;5010909;28;20508;-62
2022/06/25 01:50:28;;;;;;;9.75;1.60;;;14.40;99.90;;;;;;5011778;28;20025;-62
2022/06/25 01:52:54;;;;;;;14.52;1.38;;;14.40;99.90;;;;;;5009488;28;20118;-62
2022/06/25 01:55:21;;;;;;;11.10;1.65;;;14.40;99.90;;;;;;5011746;28;20114;-61
2022/06/25 01:57:48;;;;;;;13.50;2.15;;;14.40;99.90;;;;;;5010540;28;20120;-61
2022/06/25 02:00:26;;;;;;;12.98;1.95;;;14.40;99.90;;;;;;5011538;28;20032;-62
2022/06/25 02:02:53;;;;;;;15.23;2.25;;;14.40;99.90;;;;;;5010131;28;20402;-62
2022/06/25 02:05:56;;;;;;;12.60;1.65;;;14.40;99.90;;;;;;5007401;28;20504;-61
2022/06/25 02:08:08;;;;;;;16.40;2.00;;;14.40;99.90;;;;;;5010341;28;20026;-61
2022/06/25 02:10:33;;;;;;;16.52;2.72;;;14.50;99.90;;;;;;5010176;28;20026;-62
2022/06/25 02:12:59;;;;;;;12.88;1.60;;;14.40;99.90;;;;;;5008665;28;20030;-62
2022/06/25 02:15:25;;;;;;;14.70;1.40;;;14.40;99.90;;;;;;5010363;28;20029;-62
2022/06/25 02:17:51;;;;;;;18.50;1.90;;;14.50;99.90;;;;;;5005642;28;20482;-63
2022/06/25 02:20:17;;;;;;;14.13;2.92;;;14.50;99.90;;;;;;5012308;28;20425;-62
2022/06/25 02:22:43;;;;;;;9.35;1.52;;;14.50;99.90;;;;;;5009590;28;20030;-62
2022/06/25 02:25:09;;;;;;;15.38;2.53;;;14.50;99.90;;;;;;5012181;28;20092;-62
2022/06/25 02:27:35;;;;;;;17.52;2.70;;;14.40;99.90;;;;;;5012003;28;20034;-62
2022/06/25 02:30:01;;;;;;;15.07;1.65;;;14.40;99.90;;;;;;5009882;28;20045;-62
2022/06/25 02:32:30;;;;;;;14.45;2.30;;;14.40;99.90;;;;;;5010538;28;20058;-62
2022/06/25 02:34:56;;;;;;;14.25;2.03;;;14.30;99.90;;;;;;5007324;28;20117;-62
2022/06/25 02:37:21;;;;;;;15.63;1.52;;;14.40;99.90;;;;;;5012052;28;20360;-62
2022/06/25 02:39:47;;;;;;;12.98;2.15;;;14.30;99.90;;;;;;5008810;28;20030;-63
2022/06/25 02:42:13;;;;;;;15.88;2.22;;;14.40;99.90;;;;;;5011441;28;20033;-62
2022/06/25 02:44:38;;;;;;;12.32;2.22;;;14.40;99.90;;;;;;5010526;28;20117;-62
2022/06/25 02:47:04;;;;;;;16.63;1.80;;;14.30;99.90;;;;;;5010049;28;20161;-62
2022/06/25 02:49:30;;;;;;;16.55;2.00;;;14.30;99.90;;;;;;5010532;28;20030;-63
2022/06/25 02:51:56;;;;;;;16.90;1.73;;;14.30;99.90;;;;;;5001899;28;20045;-62
2022/06/25 02:54:22;;;;;;;15.73;1.88;;;14.40;99.90;;;;;;5011384;28;20533;-62
2022/06/25 02:59:32;;;;;;;8.82;1.40;;;14.30;99.90;;;;;;5006413;28;20036;-62
2022/06/25 03:01:58;;;;;;;13.77;1.58;;;14.30;99.90;;;;;;5009726;28;20120;-63
2022/06/25 03:04:24;;;;;;;18.73;1.90;;;14.30;99.90;;;;;;5010942;28;20127;-62
2022/06/25 03:06:51;;;;;;;13.73;2.00;;;14.40;99.90;;;;;;5009683;28;20026;-62
2022/06/25 03:09:17;;;;;;;11.73;1.75;;;14.30;99.90;;;;;;5010304;28;20034;-63
2022/06/25 03:11:43;;;;;;;12.38;2.42;;;14.20;99.90;;;;;;5009042;28;20037;-62
2022/06/25 03:14:09;;;;;;;12.40;1.85;;;14.20;99.90;;;;;;5013613;28;20096;-62
2022/06/25 03:16:34;;;;;;;12.38;1.88;;;14.20;99.90;;;;;;5008828;28;20037;-63
2022/06/25 03:19:01;;;;;;;10.40;1.50;;;14.10;99.90;;;;;;5008361;28;20104;-62
2022/06/25 03:21:27;;;;;;;17.45;2.33;;;14.20;99.90;;;;;;5011205;28;20025;-62
2022/06/25 03:23:53;;;;;;;13.45;1.80;;;14.10;99.90;;;;;;5009400;28;20083;-62
2022/06/25 03:26:18;;;;;;;17.05;1.67;;;14.10;99.90;;;;;;5008945;28;20131;-62
2022/06/25 03:28:44;;;;;;;9.93;1.45;;;14.10;99.90;;;;;;5009372;28;20030;-62
2022/06/25 03:31:10;;;;;;;15.20;1.92;;;14.10;99.90;;;;;;5010567;28;20429;-62
2022/06/25 03:33:36;;;;;;;10.70;1.20;;;14.20;99.90;;;;;;5010950;28;20026;-62
2022/06/25 03:36:02;;;;;;;9.63;1.58;;;14.30;99.90;;;;;;5010303;28;20048;-62
2022/06/25 03:38:28;;;;;;;9.02;1.98;;;14.30;99.90;;;;;;5010343;28;20034;-63
2022/06/25 03:43:38;;;;;;;14.20;2.13;;;14.30;99.90;;;;;;5002463;28;20041;-62
2022/06/25 03:46:04;;;;;;;14.77;1.70;;;14.20;99.90;;;;;;5008414;28;20038;-62
2022/06/25 03:48:29;;;;;;;12.93;1.77;;;14.30;99.90;;;;;;5010318;28;20021;-62
2022/06/25 03:50:55;;;;;;;10.13;1.98;;;14.30;99.90;;;;;;5008635;28;20024;-62
2022/06/25 03:53:21;;;;;;;13.80;1.50;;;14.30;99.90;;;;;;5010493;28;20413;-62
2022/06/25 03:55:47;;;;;;;11.73;1.40;;;14.30;99.90;;;;;;5008351;28;20129;-62
2022/06/25 03:58:14;;;;;;;12.65;2.03;;;14.30;99.90;;;;;;5007639;28;20029;-61
2022/06/25 04:00:40;;;;;;;11.30;1.73;;;14.30;99.90;;;;;;5004630;28;20034;-62
2022/06/25 04:03:06;;;;;;;9.07;1.83;;;14.30;99.90;;;;;;5008561;28;20022;-62
2022/06/25 04:05:32;;;;;;;17.45;1.75;;;14.30;99.90;;;;;;5010453;28;20018;-62
2022/06/25 04:07:57;;;;;;;11.20;1.58;;;14.30;99.90;;;;;;5003582;28;20418;-62
2022/06/25 04:10:23;;;;;;;10.98;1.52;;;14.30;99.90;;;;;;5009943;28;20026;-62
2022/06/25 04:12:49;;;;;;;15.68;2.30;;;14.30;99.90;;;;;;5006904;28;20449;-62
2022/06/25 04:15:15;;;;;;;11.95;1.40;;;14.30;99.90;;;;;;5008881;28;20034;-62
2022/06/25 04:17:41;;;;;;;15.18;2.95;;;14.30;99.90;;;;;;5009245;28;20405;-62
2022/06/25 04:20:07;;;;;;;10.82;1.83;;;14.40;99.90;;;;;;5010021;28;20446;-63
2022/06/25 04:22:33;;;;;;;11.13;1.85;;;14.40;99.90;;;;;;5009967;28;20065;-63
2022/06/25 04:24:59;;;;;;;12.57;2.10;;;14.40;99.90;;;;;;5008322;28;20033;-63
2022/06/25 04:30:09;;;;;;;12.75;1.75;;;14.50;99.90;;;;;;5004399;28;20080;-63
2022/06/25 04:32:35;;;;;;;12.27;2.25;;;14.50;99.90;;;;;;5010007;28;20041;-62
2022/06/25 04:35:01;;;;;;;10.30;2.08;;;14.50;99.90;;;;;;5007706;28;20378;-63
2022/06/25 04:37:27;;;;;;;9.35;1.67;;;14.50;99.90;;;;;;5009060;28;20041;-63
2022/06/25 04:39:52;;;;;;;14.48;1.70;;;14.50;99.90;;;;;;5007885;28;20026;-63
2022/06/25 04:42:18;;;;;;;15.93;1.95;;;14.40;99.90;;;;;;5009268;28;20045;-62
2022/06/25 04:44:44;;;;;;;11.82;1.60;;;14.40;99.90;;;;;;5007808;28;20061;-63
2022/06/25 04:47:09;;;;;;;13.48;2.25;;;14.40;99.90;;;;;;5009261;28;20163;-62
2022/06/25 04:49:35;;;;;;;14.80;1.65;;;14.40;99.90;;;;;;5009706;28;20026;-62
2022/06/25 04:52:01;;;;;;;11.43;1.85;;;14.40;99.90;;;;;;5007810;28;20115;-62
2022/06/25 04:54:27;;;;;;;16.13;3.13;;;14.40;99.90;;;;;;5008201;28;20026;-62
2022/06/25 04:56:53;;;;;;;11.63;2.53;;;14.40;99.90;;;;;;5005424;28;20042;-63
2022/06/25 04:59:19;;;;;;;11.77;1.83;;;14.40;99.90;;;;;;5006294;28;20030;-62
2022/06/25 05:01:45;;;;;;;16.13;1.73;;;14.50;99.90;;;;;;5007266;28;20036;-63
2022/06/25 05:04:11;;;;;;;15.77;1.88;;;14.50;99.90;;;;;;5007795;28;20038;-62
2022/06/25 05:06:37;;;;;;;14.60;2.00;;;14.50;99.90;;;;;;5007749;28;20113;-62
2022/06/25 05:09:03;;;;;;;14.48;2.63;;;14.50;99.90;;;;;;5006917;28;20413;-61
2022/06/25 05:11:28;;;;;;;16.25;2.33;;;14.60;99.90;;;;;;5009295;28;20026;-62
2022/06/25 05:13:54;;;;;;;20.52;1.75;;;14.70;99.90;;;;;;5008035;28;20034;-61
2022/06/25 05:16:20;;;;;;;13.50;2.05;;;14.70;99.90;;;;;;5009417;28;20117;-61
2022/06/25 05:18:47;;;;;;;13.45;2.58;;;14.80;99.90;;;;;;5008445;28;20032;-62
2022/06/25 05:21:14;;;;;;;16.23;2.28;;;14.80;99.90;;;;;;5013051;28;20109;-61
2022/06/25 05:23:40;;;;;;;12.40;1.95;;;14.80;99.90;;;;;;5013325;28;20083;-62
2022/06/25 05:26:06;;;;;;;18.27;1.88;;;15.00;99.90;;;;;;5034722;28;20065;-61
2022/06/25 05:28:31;;;;;;;10.68;2.03;;;15.10;99.90;;;;;;5012116;28;20030;-62
2022/06/25 05:30:57;;;;;;;12.88;3.10;;;15.20;99.90;;;;;;5011366;28;20062;-62
2022/06/25 05:33:26;;;;;;;16.42;2.38;;;15.20;99.90;;;;;;5013014;28;20032;-61
2022/06/25 05:35:51;;;;;;;11.18;1.90;;;15.30;99.90;;;;;;5011243;28;20038;-61
2022/06/25 05:38:17;;;;;;;19.65;2.63;;;15.30;99.90;;;;;;5011684;28;20500;-61
2022/06/25 05:40:43;;;;;;;10.93;1.55;;;15.20;99.90;;;;;;5011379;28;20379;-60
2022/06/25 05:43:09;;;;;;;16.05;2.15;;;15.20;99.90;;;;;;5012180;28;20021;-61
2022/06/25 05:45:35;;;;;;;15.18;1.60;;;15.30;99.90;;;;;;5011366;28;20100;-61
2022/06/25 05:48:01;;;;;;;15.32;1.80;;;15.40;99.90;;;;;;5007961;28;20062;-62
2022/06/25 05:50:27;;;;;;;13.55;1.88;;;15.50;99.90;;;;;;5010704;28;20045;-61
2022/06/25 05:52:54;;;;;;;11.57;1.95;;;15.60;99.90;;;;;;5009081;28;20065;-62
2022/06/25 05:55:22;;;;;;;13.90;2.17;;;15.60;99.90;;;;;;5008594;28;20040;-62
2022/06/25 05:57:48;;;;;;;11.85;1.98;;;15.50;99.90;;;;;;5005614;28;20050;-61
2022/06/25 06:00:14;;;;;;;13.27;2.10;;;15.60;99.90;;;;;;5009104;28;20076;-62
2022/06/25 06:02:40;;;;;;;19.55;1.98;;;15.60;99.90;;;;;;5012419;28;20069;-62
2022/06/25 06:05:06;;;;;;;14.85;1.77;;;15.60;99.90;;;;;;5009281;28;20049;-62
2022/06/25 06:07:32;;;;;;;15.45;2.38;;;15.50;99.90;;;;;;5011582;28;20057;-62
2022/06/25 06:09:58;;;;;;;20.48;2.78;;;15.50;99.90;;;;;;5011033;28;20068;-62
2022/06/25 06:12:24;;;;;;;14.90;2.53;;;15.50;99.90;;;;;;5040009;28;20092;-62
2022/06/25 06:14:50;;;;;;;10.52;1.92;;;15.50;99.90;;;;;;5007217;28;20022;-62
2022/06/25 06:17:16;;;;;;;15.65;1.55;;;15.60;99.90;;;;;;5011122;28;20065;-62
2022/06/25 06:19:42;;;;;;;16.05;2.08;;;15.70;99.90;;;;;;5012302;28;20064;-62
2022/06/25 06:22:08;;;;;;;14.50;3.42;;;15.70;99.90;;;;;;5002653;28;20544;-62
2022/06/25 06:24:34;;;;;;;16.05;1.67;;;15.60;99.90;;;;;;5010335;28;20026;-63
2022/06/25 06:27:01;;;;;;;9.85;2.33;;;15.40;99.90;;;;;;5009761;28;20018;-62
2022/06/25 06:29:28;;;;;;;14.10;2.60;;;15.50;99.90;;;;;;5011136;28;20033;-61
2022/06/25 06:31:54;;;;;;;9.07;1.67;;;15.50;99.90;;;;;;5007289;28;20168;-62
2022/06/25 06:34:19;;;;;;;14.85;2.17;;;15.50;99.90;;;;;;5008357;28;20128;-62
2022/06/25 06:36:45;;;;;;;11.38;2.35;;;15.50;99.90;;;;;;5009425;28;20041;-61
2022/06/25 06:39:12;;;;;;;13.63;2.30;;;15.50;99.90;;;;;;5011324;28;20474;-62
2022/06/25 06:41:37;;;;;;;9.32;1.63;;;15.40;99.90;;;;;;5009713;28;20095;-61
2022/06/25 06:44:03;;;;;;;15.93;1.92;;;15.40;99.90;;;;;;5010420;28;20433;-62
2022/06/25 06:46:29;;;;;;;11.98;2.20;;;15.30;99.90;;;;;;5011001;28;20040;-62
2022/06/25 06:48:55;;;;;;;12.98;2.70;;;15.30;99.90;;;;;;5003634;28;20026;-62
2022/06/25 06:51:21;;;;;;;14.15;1.63;;;15.30;99.90;;;;;;5010278;28;20097;-62
2022/06/25 06:53:47;;;;;;;10.52;1.85;;;15.50;99.90;;;;;;5008998;28;20034;-62
2022/06/25 06:56:12;;;;;;;12.45;2.33;;;15.60;99.90;;;;;;5013772;28;20081;-63
2022/06/25 06:58:38;;;;;;;12.10;1.67;;;15.80;99.90;;;;;;5010424;28;20069;-63
2022/06/25 07:01:04;;;;;;;12.13;2.53;;;15.80;99.90;;;;;;5007658;28;20034;-63
2022/06/25 07:03:30;;;;;;;14.98;1.85;;;15.90;99.90;;;;;;5008548;28;20474;-65
2022/06/25 07:05:56;;;;;;;14.27;2.28;;;16.10;99.90;;;;;;5003266;28;20030;-63
2022/06/25 07:08:22;;;;;;;12.40;2.38;;;16.20;99.90;;;;;;5009246;28;20030;-62
2022/06/25 07:10:48;;;;;;;11.85;2.65;;;16.30;99.90;;;;;;5008664;28;20029;-65
2022/06/25 07:13:14;;;;;;;8.52;1.17;;;16.50;99.90;;;;;;5009162;28;20034;-67
2022/06/25 07:15:40;;;;;;;12.57;1.73;;;16.50;99.90;;;;;;5009337;28;20029;-63
2022/06/25 07:18:06;;;;;;;13.40;1.90;;;16.60;99.90;;;;;;5009071;28;20025;-63
2022/06/25 07:20:32;;;;;;;13.90;2.20;;;16.80;99.90;;;;;;5009785;28;20076;-62
2022/06/25 07:22:58;;;;;;;12.55;1.73;;;17.00;99.90;;;;;;5007571;28;20037;-63
2022/06/25 07:25:24;;;;;;;12.48;1.48;;;17.00;99.90;;;;;;5010993;28;20038;-63
2022/06/25 07:27:49;;;;;;;11.00;1.50;;;17.00;99.90;;;;;;5003863;28;20529;-62
2022/06/25 07:30:15;;;;;;;9.25;1.88;;;16.90;99.90;;;;;;5010037;28;20042;-63
2022/06/25 07:32:42;;;;;;;11.48;1.65;;;16.90;99.90;;;;;;5009987;28;20026;-61
2022/06/25 07:35:08;;;;;;;12.43;2.00;;;17.00;99.90;;;;;;5007792;28;20061;-62
2022/06/25 07:37:34;;;;;;;10.27;1.20;;;16.80;99.90;;;;;;5010058;28;20042;-63
2022/06/25 07:40:00;;;;;;;7.80;1.52;;;16.80;99.90;;;;;;5008818;28;20025;-63
2022/06/25 07:42:27;;;;;;;8.40;1.38;;;16.90;99.90;;;;;;5008677;28;20034;-64
2022/06/25 07:44:53;;;;;;;11.50;1.50;;;16.70;99.90;;;;;;5007625;28;20022;-63
2022/06/25 07:47:19;;;;;;;13.20;1.50;;;16.70;99.90;;;;;;5010159;28;20084;-62
2022/06/25 07:52:29;;;;;;;12.68;2.03;;;16.50;99.90;;;;;;4999737;28;20509;-63
2022/06/25 07:54:55;;;;;;;9.70;1.40;;;16.50;99.90;;;;;;5008883;28;20026;-63
2022/06/25 07:57:20;;;;;;;14.88;1.98;;;16.60;99.90;;;;;;5007020;28;20042;-63
2022/06/25 07:59:46;;;;;;;10.25;1.08;;;16.70;99.90;;;;;;5001783;28;20041;-61
2022/06/25 08:02:12;;;;;;;10.50;1.60;;;16.90;99.90;;;;;;5003164;28;20029;-62
2022/06/25 08:04:37;;;;;;;7.53;1.40;;;17.20;99.90;;;;;;5004772;28;20026;-62
2022/06/25 08:07:03;;;;;;;9.73;1.95;;;17.50;99.90;;;;;;5008473;28;20034;-63
2022/06/25 08:09:30;;;;;;;10.18;1.40;;;17.40;99.90;;;;;;5010099;28;20026;-62
2022/06/25 08:11:55;;;;;;;11.52;1.70;;;17.30;99.90;;;;;;5001383;28;20022;-62
2022/06/25 08:14:21;;;;;;;11.63;1.67;;;17.00;99.90;;;;;;5007885;28;20084;-62
2022/06/25 08:16:47;;;;;;;11.20;2.13;;;16.90;99.90;;;;;;5005618;28;20041;-62
2022/06/25 08:19:13;;;;;;;10.70;1.80;;;16.70;99.90;;;;;;5005227;28;20108;-62
2022/06/25 08:21:38;;;;;;;11.57;1.77;;;16.80;99.90;;;;;;5008097;28;20124;-62
2022/06/25 08:24:04;;;;;;;8.18;1.35;;;17.00;99.90;;;;;;5008279;28;20471;-63
2022/06/25 08:26:30;;;;;;;10.73;2.25;;;17.10;99.90;;;;;;5003312;28;20048;-62
2022/06/25 08:28:56;;;;;;;13.85;1.35;;;17.40;99.90;;;;;;4996056;28;20022;-62
2022/06/25 08:31:23;;;;;;;6.72;1.35;;;17.50;99.90;;;;;;5000044;28;20045;-62
2022/06/25 08:33:49;;;;;;;8.18;2.53;;;17.60;99.90;;;;;;5004546;28;20029;-62
2022/06/25 08:36:15;;;;;;;9.23;1.60;;;17.80;99.90;;;;;;4998496;28;20033;-63
2022/06/25 08:38:41;;;;;;;11.57;2.22;;;17.90;99.90;;;;;;5009821;28;20033;-63
2022/06/25 08:41:07;;;;;;;11.73;1.60;;;17.70;99.90;;;;;;5005959;28;20399;-63
2022/06/25 08:43:34;;;;;;;11.75;1.58;;;17.60;99.90;;;;;;5007790;28;20033;-62
2022/06/25 08:46:00;;;;;;;8.77;1.88;;;17.60;99.90;;;;;;5000361;28;20502;-63
2022/06/25 08:48:35;;;;;;;8.98;1.58;;;17.50;99.90;;;;;;4995858;28;20109;-62
2022/06/25 08:51:02;;;;;;;7.82;2.45;;;17.50;99.90;;;;;;5006092;28;20172;-63
2022/06/25 08:53:32;;;;;;;6.35;1.30;;;17.60;99.90;;;;;;5003797;28;20030;-62
2022/06/25 08:55:59;;;;;;;16.90;2.30;;;17.80;99.90;;;;;;5022009;28;20040;-61
2022/06/25 08:58:24;;;;;;;11.05;1.40;;;17.90;99.90;;;;;;5000367;28;20032;-62
2022/06/25 09:00:50;;;;;;;9.60;1.67;;;18.00;99.90;;;;;;5005346;28;20030;-62
2022/06/25 09:03:16;;;;;;;11.77;2.13;;;18.10;99.90;;;;;;5009232;28;20355;-62
2022/06/25 09:05:44;;;;;;;11.30;1.38;;;18.30;99.90;;;;;;5006021;28;20030;-61
2022/06/25 09:08:13;;;;;;;9.57;1.42;;;18.40;99.90;;;;;;5009114;28;20386;-61
2022/06/25 09:10:40;;;;;;;8.88;1.25;;;18.50;99.90;;;;;;5005540;28;20109;-63
2022/06/25 09:13:08;;;;;;;9.32;1.65;;;18.30;99.90;;;;;;5006980;28;20022;-63
2022/06/25 09:15:40;;;;;;;10.25;1.90;;;18.60;99.90;;;;;;5003261;28;20099;-63
2022/06/25 09:18:09;;;;;;;10.32;1.38;;;18.20;99.90;;;;;;5005811;28;20030;-62
2022/06/25 09:20:35;;;;;;;8.85;1.70;;;18.30;99.90;;;;;;5005253;28;20029;-62
2022/06/25 09:23:06;;;;;;;8.20;1.23;;;18.10;99.90;;;;;;5003821;28;20466;-62
2022/06/25 09:25:34;;;;;;;13.18;1.60;;;18.10;99.90;;;;;;5002103;28;20064;-63
2022/06/25 09:28:00;;;;;;;8.02;1.65;;;17.90;99.90;;;;;;5002784;28;20072;-62
2022/06/25 09:30:29;;;;;;;6.10;1.17;;;17.80;99.90;;;;;;5007590;28;20096;-62
2022/06/25 09:32:59;;;;;;;4.10;1.13;;;17.80;99.90;;;;;;5001706;28;20072;-62
2022/06/25 09:35:38;;;;;;;10.88;1.50;;;17.60;99.90;;;;;;5006886;28;20038;-62
2022/06/25 09:38:16;;;;;;;9.20;1.48;;;17.70;99.90;;;;;;5025156;28;20042;-62
2022/06/25 09:40:58;;;;;;;6.30;1.50;;;17.80;99.90;;;;;;5003638;28;20390;-62
2022/06/25 09:43:26;;;;;;;12.43;1.65;;;17.90;99.90;;;;;;5003639;28;20106;-62
2022/06/25 09:45:54;;;;;;;11.35;1.48;;;17.90;99.90;;;;;;5004905;28;20335;-63
2022/06/25 09:48:25;;;;;;;10.85;1.60;;;18.00;99.90;;;;;;4997482;28;20431;-62
2022/06/25 09:51:12;;;;;;;9.43;2.03;;;18.20;99.90;;;;;;4995850;28;20080;-62
2022/06/25 09:53:52;;;;;;;10.15;1.75;;;18.10;99.90;;;;;;5005157;28;20018;-61
2022/06/25 09:56:22;;;;;;;9.95;1.20;;;18.20;99.90;;;;;;5004520;28;20045;-62
2022/06/25 09:58:50;;;;;;;6.50;1.52;;;18.20;99.90;;;;;;5005901;28;20030;-62
2022/06/25 10:01:18;;;;;;;12.20;2.08;;;18.10;99.90;;;;;;5007750;28;20026;-62
2022/06/25 10:03:45;;;;;;;14.10;2.25;;;18.00;99.90;;;;;;5005199;28;20026;-62
2022/06/25 10:06:16;;;;;;;9.27;1.95;;;18.00;99.90;;;;;;5012156;28;20025;-62
2022/06/25 10:08:53;;;;;;;10.25;1.65;;;18.10;99.90;;;;;;5011436;28;20072;-62
2022/06/25 10:11:24;;;;;;;9.50;1.67;;;18.20;99.90;;;;;;5010674;28;20038;-62
2022/06/25 10:13:51;;;;;;;8.05;1.55;;;18.50;99.90;;;;;;5008419;28;20073;-63
2022/06/25 10:16:18;;;;;;;10.82;1.90;;;19.20;99.90;;;;;;5009887;28;20165;-62
2022/06/25 10:18:44;;;;;;;10.32;1.35;;;19.50;99.90;;;;;;5008448;28;20280;-62
2022/06/25 10:21:12;;;;;;;6.03;1.40;;;19.50;99.90;;;;;;5009793;28;20026;-62
2022/06/25 10:23:39;;;;;;;11.15;2.00;;;19.30;99.90;;;;;;5010250;28;20072;-64
2022/06/25 10:26:06;;;;;;;13.65;1.95;;;19.20;99.90;;;;;;5005112;28;20129;-65
2022/06/25 10:28:36;;;;;;;6.78;2.00;;;18.80;99.90;;;;;;5008943;28;20029;-64
2022/06/25 10:31:10;;;;;;;14.75;2.08;;;18.90;99.90;;;;;;5005457;28;20046;-63
2022/06/25 10:33:58;;;;;;;8.65;1.30;;;19.00;99.90;;;;;;5011275;28;20034;-63
2022/06/25 10:36:44;;;;;;;9.10;1.08;;;18.50;99.90;;;;;;5003434;28;20033;-63
2022/06/25 10:39:25;;;;;;;7.35;1.77;;;18.50;99.90;;;;;;5010707;28;20061;-62
2022/06/25 10:45:09;;;;;;;4.97;0.95;;;18.60;99.90;;;;;;5010061;28;20152;-62
2022/06/25 10:47:51;;;;;;;8.32;1.10;;;18.80;99.90;;;;;;5005910;28;20113;-64
2022/06/25 10:50:22;;;;;;;9.82;1.70;;;18.80;99.90;;;;;;5011339;28;20107;-62
2022/06/25 10:53:03;;;;;;;8.80;1.42;;;18.70;99.90;;;;;;4998223;28;20029;-62
2022/06/25 10:55:32;;;;;;;7.72;1.60;;;18.60;99.90;;;;;;5010514;28;20072;-63
2022/06/25 10:58:16;;;;;;;8.63;1.65;;;18.60;99.90;;;;;;5008971;28;20457;-62
2022/06/25 11:00:46;;;;;;;10.68;1.85;;;19.00;99.90;;;;;;5010822;28;20069;-63
2022/06/25 11:03:12;;;;;;;10.05;1.30;;;19.10;99.90;;;;;;5009483;28;20049;-63
2022/06/25 11:05:45;;;;;;;11.90;1.25;;;19.40;99.90;;;;;;5011014;28;20029;-63
2022/06/25 11:08:12;;;;;;;12.80;2.40;;;19.40;99.90;;;;;;4998780;28;20134;-62
2022/06/25 11:10:40;;;;;;;7.10;1.10;;;19.10;99.90;;;;;;5010985;28;20022;-63
2022/06/25 11:13:07;;;;;;;5.72;1.15;;;18.90;99.90;;;;;;5006791;28;20113;-63
2022/06/25 11:15:39;;;;;;;11.50;1.75;;;19.10;99.90;;;;;;5010658;28;20125;-62
2022/06/25 11:18:13;;;;;;;10.10;1.98;;;19.40;99.90;;;;;;5008804;28;20034;-62
2022/06/25 11:20:40;;;;;;;10.20;1.48;;;19.50;99.90;;;;;;5010738;28;20401;-62
2022/06/25 11:23:13;;;;;;;10.18;1.48;;;19.50;99.90;;;;;;5008423;28;20034;-63
2022/06/25 11:28:48;;;;;;;12.70;1.70;;;18.90;99.90;;;;;;4997969;28;20088;-63
2022/06/25 11:31:15;;;;;;;10.57;2.05;;;18.90;99.90;;;;;;5010548;28;20050;-63
2022/06/25 11:33:43;;;;;;;12.88;1.30;;;18.80;99.90;;;;;;5009147;28;20033;-63
2022/06/25 11:36:10;;;;;;;11.45;2.10;;;19.00;99.90;;;;;;5010591;28;20398;-63
2022/06/25 11:38:37;;;;;;;5.25;1.33;;;19.10;99.90;;;;;;5010521;28;20021;-63
2022/06/25 11:41:03;;;;;;;9.57;1.73;;;19.00;99.90;;;;;;5008402;28;20084;-63
2022/06/25 11:43:30;;;;;;;8.95;1.77;;;18.90;99.90;;;;;;5005792;28;20022;-63
2022/06/25 11:45:58;;;;;;;12.63;2.97;;;18.90;99.90;;;;;;4998980;28;20114;-64
2022/06/25 11:48:28;;;;;;;13.02;1.63;;;19.00;99.90;;;;;;5010225;28;20096;-61
2022/06/25 11:50:58;;;;;;;10.32;1.75;;;18.90;99.90;;;;;;5008486;28;20026;-62
2022/06/25 11:53:24;;;;;;;9.48;1.23;;;19.00;99.90;;;;;;4997312;28;20482;-62
2022/06/25 11:56:00;;;;;;;6.00;1.20;;;19.60;99.90;;;;;;5008129;28;20075;-63
2022/06/25 11:58:31;;;;;;;16.27;1.67;;;19.50;99.90;;;;;;5001019;28;20037;-63
2022/06/25 12:00:59;;;;;;;9.38;1.05;;;19.60;99.90;;;;;;5007522;28;20018;-64
2022/06/25 12:03:26;;;;;;;7.75;1.77;;;20.10;99.90;;;;;;5005941;28;20030;-65
2022/06/25 12:05:58;;;;;;;6.65;2.10;;;20.30;99.90;;;;;;5008200;28;20099;-64
2022/06/25 12:08:25;;;;;;;7.07;2.17;;;19.80;99.90;;;;;;5009197;28;20034;-63
2022/06/25 12:10:53;;;;;;;10.98;1.52;;;20.10;99.90;;;;;;5009535;28;20121;-64
2022/06/25 12:13:20;;;;;;;13.32;2.17;;;19.80;99.90;;;;;;4998633;28;20097;-64
2022/06/25 12:15:46;;;;;;;8.40;1.33;;;20.20;99.90;;;;;;5008131;28;20481;-65
2022/06/25 12:18:13;;;;;;;6.88;1.30;;;20.50;99.90;;;;;;5007962;28;20033;-64
2022/06/25 12:20:56;;;;;;;7.70;1.30;;;20.40;99.90;;;;;;5008089;28;20049;-62
2022/06/25 12:23:22;;;;;;;5.53;1.48;;;20.50;99.90;;;;;;5008384;28;20044;-61
2022/06/25 12:25:48;;;;;;;11.55;1.40;;;20.90;99.90;;;;;;5007942;28;20022;-65
2022/06/25 12:28:15;;;;;;;8.35;1.17;;;20.80;99.90;;;;;;5007942;28;20022;-66
2022/06/25 12:30:41;;;;;;;13.65;2.33;;;20.90;99.90;;;;;;5009045;28;20046;-65
2022/06/25 12:33:13;;;;;;;6.57;1.70;;;20.90;99.90;;;;;;5003802;28;20132;-67
2022/06/25 12:35:41;;;;;;;10.65;1.08;;;20.80;99.90;;;;;;5007484;28;20034;-64
2022/06/25 12:38:11;;;;;;;8.43;1.63;;;20.80;99.90;;;;;;5007287;28;20092;-66
2022/06/25 12:40:42;;;;;;;7.78;1.83;;;21.00;99.90;;;;;;5009377;28;20401;-63
2022/06/25 12:43:09;;;;;;;11.15;1.35;;;21.10;99.90;;;;;;5001312;28;20096;-63
2022/06/25 12:45:36;;;;;;;6.20;1.33;;;21.00;99.90;;;;;;5008426;28;20052;-63
2022/06/25 12:48:03;;;;;;;6.13;1.55;;;21.20;99.90;;;;;;5001956;28;20022;-66
2022/06/25 12:50:34;;;;;;;7.97;1.05;;;20.70;99.90;;;;;;5007598;28;20068;-66
2022/06/25 12:53:15;;;;;;;4.57;1.00;;;20.90;99.90;;;;;;4999590;28;20424;-64
2022/06/25 12:55:48;;;;;;;8.55;1.33;;;21.20;99.90;;;;;;5008806;28;20026;-64
2022/06/25 12:58:15;;;;;;;12.48;1.77;;;21.30;99.90;;;;;;5009066;28;20038;-65
2022/06/25 13:00:44;;;;;;;9.85;1.60;;;21.50;99.90;;;;;;5008279;28;20098;-63
2022/06/25 13:03:10;;;;;;;5.47;1.00;;;21.50;99.90;;;;;;5007642;28;20121;-63
2022/06/25 13:05:36;;;;;;;5.30;1.00;;;21.60;99.90;;;;;;5008667;28;20030;-63